sensor_id;sensor_type;location;lat;lon;timestamp;P1;durP1;ratioP1;P2;durP2;ratioP2
13805;SDS011;6974;53.606;9.872;2023-12-22T00:01:16;19.90;;;5.17;;
13805;SDS011;6974;53.606;9.872;2023-12-22T00:03:42;26.97;;;5.87;;
13805;SDS011;6974;53.606;9.872;2023-12-22T00:06:11;25.60;;;5.67;;
13805;SDS011;6974;53.606;9.872;2023-12-22T00:08:39;31.07;;;5.97;;
13805;SDS011;6974;53.606;9.872;2023-12-22T00:11:05;30.33;;;5.87;;
13805;SDS011;6974;53.606;9.872;2023-12-22T00:13:32;26.37;;;5.50;;
13805;SDS011;6974;53.606;9.872;2023-12-22T00:15:59;21.73;;;5.20;;
13805;SDS011;6974;53.606;9.872;2023-12-22T00:18:26;23.07;;;5.07;;
13805;SDS011;6974;53.606;9.872;2023-12-22T00:20:53;25.77;;;5.70;;
13805;SDS011;6974;53.606;9.872;2023-12-22T00:23:20;25.67;;;4.97;;
13805;SDS011;6974;53.606;9.872;2023-12-22T00:25:48;20.73;;;4.97;;
13805;SDS011;6974;53.606;9.872;2023-12-22T00:28:15;20.30;;;5.57;;
13805;SDS011;6974;53.606;9.872;2023-12-22T00:30:42;23.07;;;5.10;;
13805;SDS011;6974;53.606;9.872;2023-12-22T00:33:09;24.70;;;5.03;;
13805;SDS011;6974;53.606;9.872;2023-12-22T00:35:36;25.33;;;5.50;;
13805;SDS011;6974;53.606;9.872;2023-12-22T00:38:03;19.17;;;5.23;;
13805;SDS011;6974;53.606;9.872;2023-12-22T00:40:29;22.53;;;5.27;;
13805;SDS011;6974;53.606;9.872;2023-12-22T00:42:58;24.50;;;6.83;;
13805;SDS011;6974;53.606;9.872;2023-12-22T00:45:24;23.07;;;6.00;;
13805;SDS011;6974;53.606;9.872;2023-12-22T00:47:51;20.73;;;5.43;;
13805;SDS011;6974;53.606;9.872;2023-12-22T00:50:18;27.07;;;5.40;;
13805;SDS011;6974;53.606;9.872;2023-12-22T00:52:45;23.33;;;5.10;;
13805;SDS011;6974;53.606;9.872;2023-12-22T00:55:12;16.17;;;4.73;;
13805;SDS011;6974;53.606;9.872;2023-12-22T00:57:39;26.70;;;5.07;;
13805;SDS011;6974;53.606;9.872;2023-12-22T01:00:08;17.33;;;5.17;;
13805;SDS011;6974;53.606;9.872;2023-12-22T01:02:37;22.67;;;5.07;;
13805;SDS011;6974;53.606;9.872;2023-12-22T01:05:04;17.47;;;4.73;;
13805;SDS011;6974;53.606;9.872;2023-12-22T01:07:32;14.97;;;4.40;;
13805;SDS011;6974;53.606;9.872;2023-12-22T01:09:58;14.67;;;3.67;;
13805;SDS011;6974;53.606;9.872;2023-12-22T01:12:26;10.13;;;3.43;;
13805;SDS011;6974;53.606;9.872;2023-12-22T01:14:55;10.43;;;3.17;;
13805;SDS011;6974;53.606;9.872;2023-12-22T01:17:24;14.70;;;3.70;;
13805;SDS011;6974;53.606;9.872;2023-12-22T01:19:51;12.27;;;2.50;;
13805;SDS011;6974;53.606;9.872;2023-12-22T01:22:17;11.47;;;2.60;;
13805;SDS011;6974;53.606;9.872;2023-12-22T01:24:44;11.50;;;2.50;;
13805;SDS011;6974;53.606;9.872;2023-12-22T01:27:11;9.43;;;2.30;;
13805;SDS011;6974;53.606;9.872;2023-12-22T01:29:38;7.00;;;2.00;;
13805;SDS011;6974;53.606;9.872;2023-12-22T01:32:05;6.13;;;2.07;;
13805;SDS011;6974;53.606;9.872;2023-12-22T01:34:34;5.10;;;1.93;;
13805;SDS011;6974;53.606;9.872;2023-12-22T01:37:00;5.63;;;1.87;;
13805;SDS011;6974;53.606;9.872;2023-12-22T01:39:27;8.93;;;2.30;;
13805;SDS011;6974;53.606;9.872;2023-12-22T01:41:54;5.83;;;2.00;;
13805;SDS011;6974;53.606;9.872;2023-12-22T01:44:21;5.33;;;2.20;;
13805;SDS011;6974;53.606;9.872;2023-12-22T01:46:48;4.00;;;1.83;;
13805;SDS011;6974;53.606;9.872;2023-12-22T01:49:16;5.80;;;1.80;;
13805;SDS011;6974;53.606;9.872;2023-12-22T01:51:45;6.07;;;1.50;;
13805;SDS011;6974;53.606;9.872;2023-12-22T01:54:11;8.00;;;2.03;;
13805;SDS011;6974;53.606;9.872;2023-12-22T01:56:40;9.07;;;1.93;;
13805;SDS011;6974;53.606;9.872;2023-12-22T01:59:08;5.77;;;1.80;;
13805;SDS011;6974;53.606;9.872;2023-12-22T02:01:35;6.77;;;1.90;;
13805;SDS011;6974;53.606;9.872;2023-12-22T02:04:03;3.63;;;1.60;;
13805;SDS011;6974;53.606;9.872;2023-12-22T02:06:30;7.67;;;1.80;;
13805;SDS011;6974;53.606;9.872;2023-12-22T02:09:01;5.60;;;1.80;;
13805;SDS011;6974;53.606;9.872;2023-12-22T02:11:29;7.57;;;2.30;;
13805;SDS011;6974;53.606;9.872;2023-12-22T02:13:56;6.20;;;2.10;;
13805;SDS011;6974;53.606;9.872;2023-12-22T02:16:26;7.63;;;2.30;;
13805;SDS011;6974;53.606;9.872;2023-12-22T02:18:59;8.63;;;2.33;;
13805;SDS011;6974;53.606;9.872;2023-12-22T02:21:36;6.70;;;2.20;;
13805;SDS011;6974;53.606;9.872;2023-12-22T02:24:05;9.90;;;2.50;;
13805;SDS011;6974;53.606;9.872;2023-12-22T02:26:33;8.23;;;2.30;;
13805;SDS011;6974;53.606;9.872;2023-12-22T02:29:08;11.13;;;2.50;;
13805;SDS011;6974;53.606;9.872;2023-12-22T02:31:40;9.97;;;2.50;;
13805;SDS011;6974;53.606;9.872;2023-12-22T02:34:14;8.77;;;2.47;;
13805;SDS011;6974;53.606;9.872;2023-12-22T02:36:46;10.43;;;2.80;;
13805;SDS011;6974;53.606;9.872;2023-12-22T02:39:16;10.33;;;2.47;;
13805;SDS011;6974;53.606;9.872;2023-12-22T02:41:44;13.20;;;2.80;;
13805;SDS011;6974;53.606;9.872;2023-12-22T02:44:12;10.57;;;2.73;;
13805;SDS011;6974;53.606;9.872;2023-12-22T02:46:39;9.30;;;2.87;;
13805;SDS011;6974;53.606;9.872;2023-12-22T02:49:08;4.83;;;2.33;;
13805;SDS011;6974;53.606;9.872;2023-12-22T02:51:35;11.70;;;2.40;;
13805;SDS011;6974;53.606;9.872;2023-12-22T02:54:02;9.17;;;2.50;;
13805;SDS011;6974;53.606;9.872;2023-12-22T02:56:30;6.40;;;2.07;;
13805;SDS011;6974;53.606;9.872;2023-12-22T02:58:57;8.43;;;2.33;;
13805;SDS011;6974;53.606;9.872;2023-12-22T03:01:24;4.00;;;1.30;;
13805;SDS011;6974;53.606;9.872;2023-12-22T03:03:51;8.07;;;2.00;;
13805;SDS011;6974;53.606;9.872;2023-12-22T03:06:18;1.53;;;0.97;;
13805;SDS011;6974;53.606;9.872;2023-12-22T03:08:44;1.37;;;0.93;;
13805;SDS011;6974;53.606;9.872;2023-12-22T03:11:11;2.67;;;0.90;;
13805;SDS011;6974;53.606;9.872;2023-12-22T03:13:39;1.20;;;0.77;;
13805;SDS011;6974;53.606;9.872;2023-12-22T03:16:07;1.13;;;0.97;;
13805;SDS011;6974;53.606;9.872;2023-12-22T03:18:34;2.17;;;1.17;;
13805;SDS011;6974;53.606;9.872;2023-12-22T03:21:03;3.33;;;1.20;;
13805;SDS011;6974;53.606;9.872;2023-12-22T03:23:30;2.10;;;1.23;;
13805;SDS011;6974;53.606;9.872;2023-12-22T03:25:57;4.67;;;1.70;;
13805;SDS011;6974;53.606;9.872;2023-12-22T03:28:24;6.93;;;1.60;;
13805;SDS011;6974;53.606;9.872;2023-12-22T03:30:52;5.30;;;1.57;;
13805;SDS011;6974;53.606;9.872;2023-12-22T03:33:19;6.70;;;1.47;;
13805;SDS011;6974;53.606;9.872;2023-12-22T03:35:46;6.37;;;1.83;;
13805;SDS011;6974;53.606;9.872;2023-12-22T03:38:12;6.70;;;1.77;;
13805;SDS011;6974;53.606;9.872;2023-12-22T03:40:39;8.87;;;2.00;;
13805;SDS011;6974;53.606;9.872;2023-12-22T03:43:06;5.37;;;1.60;;
13805;SDS011;6974;53.606;9.872;2023-12-22T03:45:33;15.10;;;2.60;;
13805;SDS011;6974;53.606;9.872;2023-12-22T03:48:01;7.23;;;1.97;;
13805;SDS011;6974;53.606;9.872;2023-12-22T03:50:28;5.87;;;1.90;;
13805;SDS011;6974;53.606;9.872;2023-12-22T03:52:55;4.57;;;1.73;;
13805;SDS011;6974;53.606;9.872;2023-12-22T03:55:22;6.63;;;2.20;;
13805;SDS011;6974;53.606;9.872;2023-12-22T03:57:49;4.80;;;1.70;;
13805;SDS011;6974;53.606;9.872;2023-12-22T04:00:16;6.97;;;2.37;;
13805;SDS011;6974;53.606;9.872;2023-12-22T04:02:43;10.77;;;2.27;;
13805;SDS011;6974;53.606;9.872;2023-12-22T04:05:12;9.47;;;2.83;;
13805;SDS011;6974;53.606;9.872;2023-12-22T04:07:39;10.20;;;2.80;;
13805;SDS011;6974;53.606;9.872;2023-12-22T04:10:06;11.70;;;2.60;;
13805;SDS011;6974;53.606;9.872;2023-12-22T04:12:33;15.73;;;3.30;;
13805;SDS011;6974;53.606;9.872;2023-12-22T04:15:01;11.97;;;3.03;;
13805;SDS011;6974;53.606;9.872;2023-12-22T04:17:28;10.93;;;2.97;;
13805;SDS011;6974;53.606;9.872;2023-12-22T04:19:55;8.47;;;2.27;;
13805;SDS011;6974;53.606;9.872;2023-12-22T04:22:24;8.67;;;2.57;;
13805;SDS011;6974;53.606;9.872;2023-12-22T04:24:50;6.60;;;2.43;;
13805;SDS011;6974;53.606;9.872;2023-12-22T04:27:17;11.60;;;2.73;;
13805;SDS011;6974;53.606;9.872;2023-12-22T04:29:44;10.23;;;3.30;;
13805;SDS011;6974;53.606;9.872;2023-12-22T04:32:11;13.47;;;3.10;;
13805;SDS011;6974;53.606;9.872;2023-12-22T04:34:38;14.43;;;3.07;;
13805;SDS011;6974;53.606;9.872;2023-12-22T04:37:05;12.47;;;3.10;;
13805;SDS011;6974;53.606;9.872;2023-12-22T04:39:33;14.73;;;3.17;;
13805;SDS011;6974;53.606;9.872;2023-12-22T04:42:00;10.27;;;2.80;;
13805;SDS011;6974;53.606;9.872;2023-12-22T04:44:26;10.73;;;2.73;;
13805;SDS011;6974;53.606;9.872;2023-12-22T04:46:53;13.23;;;2.70;;
13805;SDS011;6974;53.606;9.872;2023-12-22T04:49:20;9.43;;;2.97;;
13805;SDS011;6974;53.606;9.872;2023-12-22T04:51:47;9.47;;;2.83;;
13805;SDS011;6974;53.606;9.872;2023-12-22T04:54:14;10.10;;;2.83;;
13805;SDS011;6974;53.606;9.872;2023-12-22T04:56:42;9.03;;;2.80;;
13805;SDS011;6974;53.606;9.872;2023-12-22T04:59:09;13.00;;;3.27;;
13805;SDS011;6974;53.606;9.872;2023-12-22T05:01:37;15.37;;;3.03;;
13805;SDS011;6974;53.606;9.872;2023-12-22T05:04:04;12.53;;;3.77;;
13805;SDS011;6974;53.606;9.872;2023-12-22T05:06:31;16.73;;;2.83;;
13805;SDS011;6974;53.606;9.872;2023-12-22T05:08:57;13.53;;;2.80;;
13805;SDS011;6974;53.606;9.872;2023-12-22T05:11:24;9.83;;;2.40;;
13805;SDS011;6974;53.606;9.872;2023-12-22T05:13:52;9.93;;;2.37;;
13805;SDS011;6974;53.606;9.872;2023-12-22T05:16:19;6.17;;;1.97;;
13805;SDS011;6974;53.606;9.872;2023-12-22T05:18:46;10.73;;;2.77;;
13805;SDS011;6974;53.606;9.872;2023-12-22T05:21:13;12.23;;;2.80;;
13805;SDS011;6974;53.606;9.872;2023-12-22T05:23:40;8.43;;;2.50;;
13805;SDS011;6974;53.606;9.872;2023-12-22T05:26:07;10.47;;;3.23;;
13805;SDS011;6974;53.606;9.872;2023-12-22T05:28:34;7.43;;;2.10;;
13805;SDS011;6974;53.606;9.872;2023-12-22T05:31:02;8.57;;;2.57;;
13805;SDS011;6974;53.606;9.872;2023-12-22T05:33:29;7.77;;;2.97;;
13805;SDS011;6974;53.606;9.872;2023-12-22T05:35:56;11.10;;;2.57;;
13805;SDS011;6974;53.606;9.872;2023-12-22T05:38:22;9.47;;;2.97;;
13805;SDS011;6974;53.606;9.872;2023-12-22T05:40:49;3.73;;;1.63;;
13805;SDS011;6974;53.606;9.872;2023-12-22T05:43:16;12.73;;;2.13;;
13805;SDS011;6974;53.606;9.872;2023-12-22T05:45:43;6.60;;;2.30;;
13805;SDS011;6974;53.606;9.872;2023-12-22T05:48:11;7.53;;;2.03;;
13805;SDS011;6974;53.606;9.872;2023-12-22T05:50:38;8.13;;;2.20;;
13805;SDS011;6974;53.606;9.872;2023-12-22T05:53:05;8.33;;;2.27;;
13805;SDS011;6974;53.606;9.872;2023-12-22T05:55:31;10.20;;;2.43;;
13805;SDS011;6974;53.606;9.872;2023-12-22T05:57:58;4.67;;;1.50;;
13805;SDS011;6974;53.606;9.872;2023-12-22T06:00:25;9.70;;;2.17;;
13805;SDS011;6974;53.606;9.872;2023-12-22T06:02:52;6.43;;;2.00;;
13805;SDS011;6974;53.606;9.872;2023-12-22T06:05:20;5.30;;;1.70;;
13805;SDS011;6974;53.606;9.872;2023-12-22T06:07:47;4.27;;;1.80;;
13805;SDS011;6974;53.606;9.872;2023-12-22T06:10:14;3.97;;;1.60;;
13805;SDS011;6974;53.606;9.872;2023-12-22T06:12:41;5.20;;;1.90;;
13805;SDS011;6974;53.606;9.872;2023-12-22T06:15:08;7.93;;;2.13;;
13805;SDS011;6974;53.606;9.872;2023-12-22T06:17:35;6.97;;;2.17;;
13805;SDS011;6974;53.606;9.872;2023-12-22T06:20:02;7.17;;;2.10;;
13805;SDS011;6974;53.606;9.872;2023-12-22T06:22:30;7.43;;;2.50;;
13805;SDS011;6974;53.606;9.872;2023-12-22T06:24:57;11.80;;;2.63;;
13805;SDS011;6974;53.606;9.872;2023-12-22T06:27:25;10.20;;;3.20;;
13805;SDS011;6974;53.606;9.872;2023-12-22T06:29:51;13.77;;;3.77;;
13805;SDS011;6974;53.606;9.872;2023-12-22T06:32:20;11.57;;;3.43;;
13805;SDS011;6974;53.606;9.872;2023-12-22T06:34:47;11.97;;;3.17;;
13805;SDS011;6974;53.606;9.872;2023-12-22T06:37:14;17.67;;;3.67;;
13805;SDS011;6974;53.606;9.872;2023-12-22T06:39:43;16.33;;;3.43;;
13805;SDS011;6974;53.606;9.872;2023-12-22T06:42:10;16.33;;;4.27;;
13805;SDS011;6974;53.606;9.872;2023-12-22T06:44:37;16.97;;;3.90;;
13805;SDS011;6974;53.606;9.872;2023-12-22T06:47:05;16.67;;;4.57;;
13805;SDS011;6974;53.606;9.872;2023-12-22T06:49:32;11.57;;;3.63;;
13805;SDS011;6974;53.606;9.872;2023-12-22T06:51:59;18.83;;;4.17;;
13805;SDS011;6974;53.606;9.872;2023-12-22T06:54:26;23.20;;;5.43;;
13805;SDS011;6974;53.606;9.872;2023-12-22T06:56:55;25.17;;;5.03;;
13805;SDS011;6974;53.606;9.872;2023-12-22T06:59:22;24.27;;;4.40;;
13805;SDS011;6974;53.606;9.872;2023-12-22T07:01:49;19.47;;;4.30;;
13805;SDS011;6974;53.606;9.872;2023-12-22T07:04:16;17.87;;;4.30;;
13805;SDS011;6974;53.606;9.872;2023-12-22T07:06:43;17.40;;;4.40;;
13805;SDS011;6974;53.606;9.872;2023-12-22T07:09:31;13.93;;;4.10;;
13805;SDS011;6974;53.606;9.872;2023-12-22T07:11:59;19.07;;;4.13;;
13805;SDS011;6974;53.606;9.872;2023-12-22T07:14:26;18.97;;;4.50;;
13805;SDS011;6974;53.606;9.872;2023-12-22T07:16:53;22.43;;;4.03;;
13805;SDS011;6974;53.606;9.872;2023-12-22T07:19:20;17.87;;;4.20;;
13805;SDS011;6974;53.606;9.872;2023-12-22T07:21:47;24.03;;;4.87;;
13805;SDS011;6974;53.606;9.872;2023-12-22T07:24:14;18.00;;;4.33;;
13805;SDS011;6974;53.606;9.872;2023-12-22T07:26:41;23.57;;;4.83;;
13805;SDS011;6974;53.606;9.872;2023-12-22T07:29:10;18.87;;;4.37;;
13805;SDS011;6974;53.606;9.872;2023-12-22T07:31:37;14.03;;;4.30;;
13805;SDS011;6974;53.606;9.872;2023-12-22T07:34:04;15.00;;;3.83;;
13805;SDS011;6974;53.606;9.872;2023-12-22T07:36:31;21.23;;;3.90;;
13805;SDS011;6974;53.606;9.872;2023-12-22T07:38:57;21.30;;;4.50;;
13805;SDS011;6974;53.606;9.872;2023-12-22T07:41:25;13.73;;;4.00;;
13805;SDS011;6974;53.606;9.872;2023-12-22T07:43:52;16.03;;;3.40;;
13805;SDS011;6974;53.606;9.872;2023-12-22T07:46:20;19.07;;;3.63;;
13805;SDS011;6974;53.606;9.872;2023-12-22T07:48:48;14.23;;;3.67;;
13805;SDS011;6974;53.606;9.872;2023-12-22T07:51:15;11.07;;;3.03;;
13805;SDS011;6974;53.606;9.872;2023-12-22T07:53:42;14.80;;;3.27;;
13805;SDS011;6974;53.606;9.872;2023-12-22T07:56:09;13.10;;;3.30;;
13805;SDS011;6974;53.606;9.872;2023-12-22T07:58:36;13.23;;;3.43;;
13805;SDS011;6974;53.606;9.872;2023-12-22T08:01:03;12.43;;;3.23;;
13805;SDS011;6974;53.606;9.872;2023-12-22T08:03:33;10.73;;;3.50;;
13805;SDS011;6974;53.606;9.872;2023-12-22T08:06:00;14.77;;;3.67;;
13805;SDS011;6974;53.606;9.872;2023-12-22T08:08:27;16.07;;;3.40;;
13805;SDS011;6974;53.606;9.872;2023-12-22T08:14:16;10.10;;;2.80;;
13805;SDS011;6974;53.606;9.872;2023-12-22T08:16:43;8.07;;;2.97;;
13805;SDS011;6974;53.606;9.872;2023-12-22T08:19:11;10.33;;;2.60;;
13805;SDS011;6974;53.606;9.872;2023-12-22T08:21:39;7.13;;;2.40;;
13805;SDS011;6974;53.606;9.872;2023-12-22T08:24:06;6.67;;;2.23;;
13805;SDS011;6974;53.606;9.872;2023-12-22T08:26:33;8.93;;;2.63;;
13805;SDS011;6974;53.606;9.872;2023-12-22T08:29:00;10.00;;;2.97;;
13805;SDS011;6974;53.606;9.872;2023-12-22T08:31:26;15.23;;;3.70;;
13805;SDS011;6974;53.606;9.872;2023-12-22T08:33:53;15.27;;;3.63;;
13805;SDS011;6974;53.606;9.872;2023-12-22T08:36:22;16.60;;;4.27;;
13805;SDS011;6974;53.606;9.872;2023-12-22T08:38:49;14.20;;;3.50;;
13805;SDS011;6974;53.606;9.872;2023-12-22T08:41:15;17.87;;;3.97;;
13805;SDS011;6974;53.606;9.872;2023-12-22T08:43:42;13.10;;;2.83;;
13805;SDS011;6974;53.606;9.872;2023-12-22T08:46:09;14.50;;;3.47;;
13805;SDS011;6974;53.606;9.872;2023-12-22T08:48:37;12.30;;;3.13;;
13805;SDS011;6974;53.606;9.872;2023-12-22T08:51:03;10.13;;;2.90;;
13805;SDS011;6974;53.606;9.872;2023-12-22T08:53:32;12.00;;;2.40;;
13805;SDS011;6974;53.606;9.872;2023-12-22T08:56:02;10.40;;;2.60;;
13805;SDS011;6974;53.606;9.872;2023-12-22T08:58:30;9.40;;;2.13;;
13805;SDS011;6974;53.606;9.872;2023-12-22T09:00:58;8.50;;;2.30;;
13805;SDS011;6974;53.606;9.872;2023-12-22T09:03:25;6.33;;;1.90;;
13805;SDS011;6974;53.606;9.872;2023-12-22T09:05:53;7.90;;;2.30;;
13805;SDS011;6974;53.606;9.872;2023-12-22T09:08:20;8.57;;;2.57;;
13805;SDS011;6974;53.606;9.872;2023-12-22T09:10:48;12.40;;;2.73;;
13805;SDS011;6974;53.606;9.872;2023-12-22T09:13:15;8.47;;;2.40;;
13805;SDS011;6974;53.606;9.872;2023-12-22T09:15:42;9.17;;;2.43;;
13805;SDS011;6974;53.606;9.872;2023-12-22T09:18:11;12.80;;;2.77;;
13805;SDS011;6974;53.606;9.872;2023-12-22T09:20:38;9.97;;;2.60;;
13805;SDS011;6974;53.606;9.872;2023-12-22T09:23:06;10.23;;;2.47;;
13805;SDS011;6974;53.606;9.872;2023-12-22T09:25:34;10.87;;;2.67;;
13805;SDS011;6974;53.606;9.872;2023-12-22T09:28:03;11.50;;;2.87;;
13805;SDS011;6974;53.606;9.872;2023-12-22T09:30:31;12.07;;;2.77;;
13805;SDS011;6974;53.606;9.872;2023-12-22T09:32:57;10.17;;;2.97;;
13805;SDS011;6974;53.606;9.872;2023-12-22T09:35:24;12.30;;;3.07;;
13805;SDS011;6974;53.606;9.872;2023-12-22T09:37:51;10.30;;;3.13;;
13805;SDS011;6974;53.606;9.872;2023-12-22T09:40:19;10.20;;;2.73;;
13805;SDS011;6974;53.606;9.872;2023-12-22T09:42:47;16.80;;;3.30;;
13805;SDS011;6974;53.606;9.872;2023-12-22T09:45:17;13.63;;;3.60;;
13805;SDS011;6974;53.606;9.872;2023-12-22T09:47:45;10.67;;;3.50;;
13805;SDS011;6974;53.606;9.872;2023-12-22T09:50:13;10.90;;;2.90;;
13805;SDS011;6974;53.606;9.872;2023-12-22T09:52:41;13.77;;;3.27;;
13805;SDS011;6974;53.606;9.872;2023-12-22T09:55:10;13.57;;;3.17;;
13805;SDS011;6974;53.606;9.872;2023-12-22T09:57:39;10.20;;;3.23;;
13805;SDS011;6974;53.606;9.872;2023-12-22T10:00:07;19.50;;;3.33;;
13805;SDS011;6974;53.606;9.872;2023-12-22T10:02:39;11.73;;;3.20;;
13805;SDS011;6974;53.606;9.872;2023-12-22T10:05:06;10.37;;;3.23;;
13805;SDS011;6974;53.606;9.872;2023-12-22T10:07:35;12.10;;;3.90;;
13805;SDS011;6974;53.606;9.872;2023-12-22T10:10:02;15.77;;;3.00;;
13805;SDS011;6974;53.606;9.872;2023-12-22T10:12:31;16.87;;;4.17;;
13805;SDS011;6974;53.606;9.872;2023-12-22T10:15:00;16.90;;;3.63;;
13805;SDS011;6974;53.606;9.872;2023-12-22T10:17:28;19.40;;;3.97;;
13805;SDS011;6974;53.606;9.872;2023-12-22T10:19:57;14.97;;;3.73;;
13805;SDS011;6974;53.606;9.872;2023-12-22T10:22:24;18.43;;;4.00;;
13805;SDS011;6974;53.606;9.872;2023-12-22T10:24:51;17.23;;;4.40;;
13805;SDS011;6974;53.606;9.872;2023-12-22T10:27:18;11.43;;;3.10;;
13805;SDS011;6974;53.606;9.872;2023-12-22T10:29:47;10.47;;;3.47;;
13805;SDS011;6974;53.606;9.872;2023-12-22T10:32:14;15.40;;;3.40;;
13805;SDS011;6974;53.606;9.872;2023-12-22T10:34:42;14.20;;;3.37;;
13805;SDS011;6974;53.606;9.872;2023-12-22T10:37:10;16.17;;;2.93;;
13805;SDS011;6974;53.606;9.872;2023-12-22T10:39:38;7.93;;;2.40;;
13805;SDS011;6974;53.606;9.872;2023-12-22T10:42:06;6.57;;;2.33;;
13805;SDS011;6974;53.606;9.872;2023-12-22T10:44:32;13.27;;;2.97;;
13805;SDS011;6974;53.606;9.872;2023-12-22T10:47:00;8.93;;;2.73;;
13805;SDS011;6974;53.606;9.872;2023-12-22T10:49:27;13.70;;;2.57;;
13805;SDS011;6974;53.606;9.872;2023-12-22T10:51:55;13.37;;;3.10;;
13805;SDS011;6974;53.606;9.872;2023-12-22T10:54:23;13.77;;;3.10;;
13805;SDS011;6974;53.606;9.872;2023-12-22T10:56:50;16.10;;;3.90;;
13805;SDS011;6974;53.606;9.872;2023-12-22T10:59:18;17.63;;;3.57;;
13805;SDS011;6974;53.606;9.872;2023-12-22T11:01:48;14.73;;;3.53;;
13805;SDS011;6974;53.606;9.872;2023-12-22T11:04:20;13.30;;;4.03;;
13805;SDS011;6974;53.606;9.872;2023-12-22T11:06:49;11.23;;;3.03;;
13805;SDS011;6974;53.606;9.872;2023-12-22T11:09:18;13.67;;;3.33;;
13805;SDS011;6974;53.606;9.872;2023-12-22T11:11:49;12.70;;;3.27;;
13805;SDS011;6974;53.606;9.872;2023-12-22T11:14:17;13.80;;;2.60;;
13805;SDS011;6974;53.606;9.872;2023-12-22T11:16:45;15.47;;;3.20;;
13805;SDS011;6974;53.606;9.872;2023-12-22T11:19:13;8.53;;;2.50;;
13805;SDS011;6974;53.606;9.872;2023-12-22T11:21:41;10.10;;;2.87;;
13805;SDS011;6974;53.606;9.872;2023-12-22T11:24:09;10.13;;;3.10;;
13805;SDS011;6974;53.606;9.872;2023-12-22T11:26:39;9.27;;;2.17;;
13805;SDS011;6974;53.606;9.872;2023-12-22T11:29:09;10.30;;;2.50;;
13805;SDS011;6974;53.606;9.872;2023-12-22T11:31:37;11.77;;;3.13;;
13805;SDS011;6974;53.606;9.872;2023-12-22T11:34:06;9.17;;;3.00;;
13805;SDS011;6974;53.606;9.872;2023-12-22T11:36:34;9.67;;;2.50;;
13805;SDS011;6974;53.606;9.872;2023-12-22T11:39:04;14.40;;;2.80;;
13805;SDS011;6974;53.606;9.872;2023-12-22T11:41:32;8.67;;;2.93;;
13805;SDS011;6974;53.606;9.872;2023-12-22T11:44:01;15.53;;;3.20;;
13805;SDS011;6974;53.606;9.872;2023-12-22T11:46:31;14.37;;;3.17;;
13805;SDS011;6974;53.606;9.872;2023-12-22T11:48:59;14.30;;;2.80;;
13805;SDS011;6974;53.606;9.872;2023-12-22T11:51:30;9.67;;;2.40;;
13805;SDS011;6974;53.606;9.872;2023-12-22T11:53:59;8.37;;;3.00;;
13805;SDS011;6974;53.606;9.872;2023-12-22T11:56:26;12.10;;;3.60;;
13805;SDS011;6974;53.606;9.872;2023-12-22T11:58:54;15.00;;;3.63;;
13805;SDS011;6974;53.606;9.872;2023-12-22T12:01:24;7.43;;;2.30;;
13805;SDS011;6974;53.606;9.872;2023-12-22T12:03:57;10.50;;;3.40;;
13805;SDS011;6974;53.606;9.872;2023-12-22T12:06:33;12.53;;;3.17;;
13805;SDS011;6974;53.606;9.872;2023-12-22T12:09:04;14.17;;;4.07;;
13805;SDS011;6974;53.606;9.872;2023-12-22T12:14:37;17.27;;;4.13;;
13805;SDS011;6974;53.606;9.872;2023-12-22T12:17:08;12.87;;;3.30;;
13805;SDS011;6974;53.606;9.872;2023-12-22T12:19:37;9.70;;;2.87;;
13805;SDS011;6974;53.606;9.872;2023-12-22T12:22:06;12.83;;;3.47;;
13805;SDS011;6974;53.606;9.872;2023-12-22T12:24:35;13.07;;;3.80;;
13805;SDS011;6974;53.606;9.872;2023-12-22T12:27:03;11.83;;;3.43;;
13805;SDS011;6974;53.606;9.872;2023-12-22T12:29:31;16.63;;;4.57;;
13805;SDS011;6974;53.606;9.872;2023-12-22T12:32:02;16.17;;;3.23;;
13805;SDS011;6974;53.606;9.872;2023-12-22T12:34:30;14.00;;;3.90;;
13805;SDS011;6974;53.606;9.872;2023-12-22T12:36:59;17.60;;;3.63;;
13805;SDS011;6974;53.606;9.872;2023-12-22T12:39:29;15.80;;;3.47;;
13805;SDS011;6974;53.606;9.872;2023-12-22T12:41:59;18.37;;;3.40;;
13805;SDS011;6974;53.606;9.872;2023-12-22T12:44:26;21.67;;;5.37;;
13805;SDS011;6974;53.606;9.872;2023-12-22T12:46:53;21.87;;;3.97;;
13805;SDS011;6974;53.606;9.872;2023-12-22T12:49:20;17.40;;;4.17;;
13805;SDS011;6974;53.606;9.872;2023-12-22T12:51:51;12.47;;;3.87;;
13805;SDS011;6974;53.606;9.872;2023-12-22T12:54:20;15.90;;;3.67;;
13805;SDS011;6974;53.606;9.872;2023-12-22T12:56:47;17.60;;;4.13;;
13805;SDS011;6974;53.606;9.872;2023-12-22T12:59:15;16.00;;;3.80;;
13805;SDS011;6974;53.606;9.872;2023-12-22T13:01:43;13.17;;;3.63;;
13805;SDS011;6974;53.606;9.872;2023-12-22T13:04:11;15.07;;;3.73;;
13805;SDS011;6974;53.606;9.872;2023-12-22T13:06:42;14.40;;;3.90;;
13805;SDS011;6974;53.606;9.872;2023-12-22T13:09:10;13.33;;;3.63;;
13805;SDS011;6974;53.606;9.872;2023-12-22T13:11:39;14.87;;;2.87;;
13805;SDS011;6974;53.606;9.872;2023-12-22T13:14:07;14.47;;;3.70;;
13805;SDS011;6974;53.606;9.872;2023-12-22T13:16:34;11.47;;;3.10;;
13805;SDS011;6974;53.606;9.872;2023-12-22T13:19:01;15.97;;;3.53;;
13805;SDS011;6974;53.606;9.872;2023-12-22T13:21:29;13.47;;;3.33;;
13805;SDS011;6974;53.606;9.872;2023-12-22T13:24:09;12.17;;;3.20;;
13805;SDS011;6974;53.606;9.872;2023-12-22T13:26:36;12.47;;;3.13;;
13805;SDS011;6974;53.606;9.872;2023-12-22T13:29:05;17.27;;;3.50;;
13805;SDS011;6974;53.606;9.872;2023-12-22T13:31:32;9.77;;;2.90;;
13805;SDS011;6974;53.606;9.872;2023-12-22T13:33:59;14.07;;;3.53;;
13805;SDS011;6974;53.606;9.872;2023-12-22T13:36:26;9.97;;;2.77;;
13805;SDS011;6974;53.606;9.872;2023-12-22T13:38:53;17.57;;;3.20;;
13805;SDS011;6974;53.606;9.872;2023-12-22T13:41:20;13.10;;;3.03;;
13805;SDS011;6974;53.606;9.872;2023-12-22T13:43:47;14.23;;;3.30;;
13805;SDS011;6974;53.606;9.872;2023-12-22T13:46:15;33.33;;;4.07;;
13805;SDS011;6974;53.606;9.872;2023-12-22T13:48:43;18.50;;;3.77;;
13805;SDS011;6974;53.606;9.872;2023-12-22T13:51:10;23.60;;;4.30;;
13805;SDS011;6974;53.606;9.872;2023-12-22T13:53:46;16.67;;;3.30;;
13805;SDS011;6974;53.606;9.872;2023-12-22T13:56:13;16.93;;;3.43;;
13805;SDS011;6974;53.606;9.872;2023-12-22T13:58:43;33.20;;;5.43;;
13805;SDS011;6974;53.606;9.872;2023-12-22T14:01:12;18.33;;;3.33;;
13805;SDS011;6974;53.606;9.872;2023-12-22T14:03:41;16.70;;;3.10;;
13805;SDS011;6974;53.606;9.872;2023-12-22T14:06:09;16.00;;;3.77;;
13805;SDS011;6974;53.606;9.872;2023-12-22T14:08:37;16.67;;;3.10;;
13805;SDS011;6974;53.606;9.872;2023-12-22T14:11:05;16.00;;;3.40;;
13805;SDS011;6974;53.606;9.872;2023-12-22T14:13:32;13.07;;;4.10;;
13805;SDS011;6974;53.606;9.872;2023-12-22T14:16:00;13.03;;;3.87;;
13805;SDS011;6974;53.606;9.872;2023-12-22T14:18:27;14.90;;;3.73;;
13805;SDS011;6974;53.606;9.872;2023-12-22T14:20:55;10.60;;;2.73;;
13805;SDS011;6974;53.606;9.872;2023-12-22T14:23:23;32.67;;;6.70;;
13805;SDS011;6974;53.606;9.872;2023-12-22T14:25:50;21.47;;;5.07;;
13805;SDS011;6974;53.606;9.872;2023-12-22T14:28:17;22.50;;;4.03;;
13805;SDS011;6974;53.606;9.872;2023-12-22T14:30:45;16.47;;;4.70;;
13805;SDS011;6974;53.606;9.872;2023-12-22T14:33:12;21.10;;;4.07;;
13805;SDS011;6974;53.606;9.872;2023-12-22T14:35:39;17.70;;;4.63;;
13805;SDS011;6974;53.606;9.872;2023-12-22T14:38:07;21.57;;;3.97;;
13805;SDS011;6974;53.606;9.872;2023-12-22T14:40:34;20.17;;;3.53;;
13805;SDS011;6974;53.606;9.872;2023-12-22T14:43:01;12.97;;;3.50;;
13805;SDS011;6974;53.606;9.872;2023-12-22T14:45:28;13.53;;;3.30;;
13805;SDS011;6974;53.606;9.872;2023-12-22T14:47:55;11.60;;;3.10;;
13805;SDS011;6974;53.606;9.872;2023-12-22T14:50:22;9.30;;;3.47;;
13805;SDS011;6974;53.606;9.872;2023-12-22T14:52:48;12.80;;;3.50;;
13805;SDS011;6974;53.606;9.872;2023-12-22T14:55:17;8.43;;;2.60;;
13805;SDS011;6974;53.606;9.872;2023-12-22T14:57:45;12.27;;;3.00;;
13805;SDS011;6974;53.606;9.872;2023-12-22T15:00:12;9.33;;;2.53;;
13805;SDS011;6974;53.606;9.872;2023-12-22T15:02:40;12.83;;;2.73;;